createdAt,value
2023-03-24T00:02:16.491Z,10.40
2023-03-24T00:04:45.519Z,10.40
2023-03-24T00:07:14.840Z,10.50
2023-03-24T00:09:46.394Z,10.50
2023-03-24T00:12:18.619Z,10.50
2023-03-24T00:14:48.060Z,10.50
2023-03-24T00:17:18.019Z,10.50
2023-03-24T00:19:47.314Z,10.50
2023-03-24T00:22:16.554Z,10.50
2023-03-24T00:24:47.488Z,10.50
2023-03-24T00:27:17.696Z,10.50
2023-03-24T00:29:46.726Z,10.50
2023-03-24T00:32:15.759Z,10.60
2023-03-24T00:34:44.926Z,10.60
2023-03-24T00:37:14.172Z,10.60
2023-03-24T00:39:43.943Z,10.60
2023-03-24T00:42:14.923Z,10.60
2023-03-24T00:44:44.895Z,10.60
2023-03-24T00:47:13.945Z,10.60
2023-03-24T00:49:45.883Z,10.60
2023-03-24T00:52:18.175Z,10.60
2023-03-24T00:54:47.748Z,10.60
2023-03-24T00:57:22.091Z,10.60
2023-03-24T00:59:51.899Z,10.60
2023-03-24T01:02:24.663Z,10.60
2023-03-24T01:04:55.148Z,10.60
2023-03-24T01:07:25.093Z,10.60
2023-03-24T01:09:57.974Z,10.60
2023-03-24T01:12:30.469Z,10.60
2023-03-24T01:15:00.647Z,10.60
2023-03-24T01:17:31.016Z,10.60
2023-03-24T01:20:00.285Z,10.60
2023-03-24T01:22:30.832Z,10.60
2023-03-24T01:25:00.971Z,10.60
2023-03-24T01:27:31.466Z,10.60
2023-03-24T01:30:01.983Z,10.60
2023-03-24T01:32:31.362Z,10.60
2023-03-24T01:35:01.018Z,10.60
2023-03-24T01:37:30.054Z,10.60
2023-03-24T01:39:59.092Z,10.60
2023-03-24T01:42:30.816Z,10.60
2023-03-24T01:45:03.289Z,10.60
2023-03-24T01:47:34.061Z,10.60
2023-03-24T01:50:05.244Z,10.60
2023-03-24T01:52:37.634Z,10.60
2023-03-24T01:55:12.344Z,10.50
2023-03-24T01:57:46.424Z,10.50
2023-03-24T02:00:18.453Z,10.50
2023-03-24T02:03:21.001Z,10.50
2023-03-24T02:05:58.656Z,10.50
2023-03-24T02:08:32.929Z,10.50
2023-03-24T02:11:03.286Z,10.50
2023-03-24T02:13:42.843Z,10.50
2023-03-24T02:16:22.998Z,10.50
2023-03-24T02:19:03.059Z,10.50
2023-03-24T02:22:01.646Z,10.50
2023-03-24T02:25:21.647Z,10.50
2023-03-24T02:28:13.654Z,10.50
2023-03-24T02:31:10.337Z,10.60
2023-03-24T02:34:27.417Z,10.60
2023-03-24T02:37:27.591Z,10.60
2023-03-24T02:40:22.938Z,10.50
2023-03-24T02:43:07.705Z,10.50
2023-03-24T02:45:41.031Z,10.50
2023-03-24T02:48:24.773Z,10.50
2023-03-24T02:51:02.259Z,10.60
2023-03-24T02:53:37.656Z,10.60
2023-03-24T02:56:37.040Z,10.60
2023-03-24T02:59:27.838Z,10.60
2023-03-24T03:02:05.240Z,10.60
2023-03-24T03:04:52.474Z,10.50
2023-03-24T03:07:25.154Z,10.60
2023-03-24T03:09:58.754Z,10.60
2023-03-24T03:12:35.322Z,10.60
2023-03-24T03:15:08.439Z,10.60
2023-03-24T03:17:43.010Z,10.60
2023-03-24T03:20:17.704Z,10.60
2023-03-24T03:22:51.767Z,10.60
2023-03-24T03:25:25.649Z,10.60
2023-03-24T03:27:58.803Z,10.60
2023-03-24T03:30:34.373Z,10.50
2023-03-24T03:33:07.820Z,10.50
2023-03-24T03:35:40.457Z,10.50
2023-03-24T03:38:15.772Z,10.60
2023-03-24T03:40:51.716Z,10.60
2023-03-24T03:43:27.779Z,10.60
2023-03-24T03:45:57.199Z,10.60
2023-03-24T03:48:33.364Z,10.60
2023-03-24T03:51:13.026Z,10.50
2023-03-24T03:53:51.624Z,10.50
2023-03-24T03:56:23.711Z,10.50
2023-03-24T03:59:08.915Z,10.50
2023-03-24T04:01:42.070Z,10.40
2023-03-24T04:05:07.768Z,10.50
2023-03-24T04:08:03.600Z,10.50
2023-03-24T04:11:24.737Z,10.50
2023-03-24T04:14:31.907Z,10.50
2023-03-24T04:17:31.067Z,10.50
2023-03-24T04:20:10.649Z,10.60
2023-03-24T04:22:55.054Z,10.60
2023-03-24T04:25:35.220Z,10.60
2023-03-24T04:28:15.484Z,10.60
2023-03-24T04:30:50.426Z,10.60
2023-03-24T04:33:29.037Z,10.60
2023-03-24T04:36:06.650Z,10.60
2023-03-24T04:38:55.058Z,10.60
2023-03-24T04:41:40.547Z,10.60
2023-03-24T04:44:21.787Z,10.60
2023-03-24T04:47:14.782Z,10.70
2023-03-24T04:50:02.209Z,10.60
2023-03-24T04:52:32.117Z,10.70
2023-03-24T04:55:03.974Z,10.60
2023-03-24T04:57:33.219Z,10.60
2023-03-24T05:00:09.037Z,10.70
2023-03-24T05:02:39.551Z,10.70
2023-03-24T05:05:16.125Z,10.70
2023-03-24T05:07:48.370Z,10.70
2023-03-24T05:10:21.825Z,10.70
2023-03-24T05:12:56.133Z,10.70
2023-03-24T05:15:44.008Z,10.70
2023-03-24T05:18:31.328Z,10.70
2023-03-24T05:21:00.879Z,10.70
2023-03-24T05:23:30.093Z,10.70
2023-03-24T05:26:03.129Z,10.70
2023-03-24T05:28:35.470Z,10.70
2023-03-24T05:31:04.866Z,10.70
2023-03-24T05:33:48.585Z,10.70
2023-03-24T05:36:21.348Z,10.70
2023-03-24T05:38:56.835Z,10.70
2023-03-24T05:41:31.933Z,10.70
2023-03-24T05:44:00.959Z,10.70
2023-03-24T05:46:30.142Z,10.70
2023-03-24T05:49:00.934Z,10.70
2023-03-24T05:51:35.361Z,10.70
2023-03-24T05:54:07.556Z,10.70
2023-03-24T05:56:43.912Z,10.70
2023-03-24T05:59:31.920Z,10.70
2023-03-24T06:02:06.681Z,10.70
2023-03-24T06:04:57.692Z,10.70
2023-03-24T06:07:30.827Z,10.70
2023-03-24T06:10:03.220Z,10.70
2023-03-24T06:12:40.378Z,10.70
2023-03-24T06:15:11.216Z,10.70
2023-03-24T06:17:42.669Z,10.70
2023-03-24T06:20:20.947Z,10.70
2023-03-24T06:23:02.736Z,10.80
2023-03-24T06:25:44.811Z,10.80
2023-03-24T06:28:34.661Z,10.80
2023-03-24T06:31:19.442Z,10.80
2023-03-24T06:33:49.325Z,10.80
2023-03-24T06:36:19.880Z,10.80
2023-03-24T06:38:50.445Z,10.80
2023-03-24T06:41:22.447Z,10.80
2023-03-24T06:43:56.181Z,10.80
2023-03-24T06:46:25.502Z,10.80
2023-03-24T06:48:57.150Z,10.80
2023-03-24T06:51:28.036Z,10.80
2023-03-24T06:53:57.257Z,10.80
2023-03-24T06:56:27.238Z,10.80
2023-03-24T06:59:00.175Z,10.80
2023-03-24T07:01:35.268Z,10.80
2023-03-24T07:04:16.008Z,10.80
2023-03-24T07:07:12.484Z,10.80
2023-03-24T07:09:53.641Z,10.90
2023-03-24T07:12:22.938Z,10.90
2023-03-24T07:14:52.110Z,10.90
2023-03-24T07:17:22.699Z,11.00
2023-03-24T07:20:18.738Z,11.00
2023-03-24T07:23:09.512Z,11.10
2023-03-24T07:26:00.063Z,11.20
2023-03-24T07:28:47.523Z,11.30
2023-03-24T07:31:25.802Z,11.40
2023-03-24T07:34:02.204Z,11.40
2023-03-24T07:36:31.644Z,11.40
2023-03-24T07:39:04.816Z,11.40
2023-03-24T07:41:39.528Z,11.40
2023-03-24T07:44:16.821Z,11.40
2023-03-24T07:46:52.381Z,11.40
2023-03-24T07:49:22.175Z,11.50
2023-03-24T07:52:06.456Z,11.50
2023-03-24T07:54:40.882Z,11.50
2023-03-24T07:57:11.187Z,11.50
2023-03-24T07:59:40.549Z,11.40
2023-03-24T08:02:29.870Z,11.40
2023-03-24T08:05:20.861Z,11.40
2023-03-24T08:08:10.345Z,11.40
2023-03-24T08:10:42.747Z,11.40
2023-03-24T08:13:11.828Z,11.40
2023-03-24T08:15:41.225Z,11.50
2023-03-24T08:18:10.442Z,11.50
2023-03-24T08:20:42.115Z,11.50
2023-03-24T08:23:11.256Z,11.50
2023-03-24T08:25:42.048Z,11.50
2023-03-24T08:28:11.402Z,11.60
2023-03-24T08:30:43.718Z,11.80
2023-03-24T08:33:14.655Z,12.00
2023-03-24T08:35:45.311Z,12.20
2023-03-24T08:38:16.825Z,12.40
2023-03-24T08:40:49.092Z,12.50
2023-03-24T08:43:18.564Z,12.70
2023-03-24T08:45:47.876Z,12.90
2023-03-24T08:48:17.159Z,13.10
2023-03-24T08:50:46.197Z,13.30
2023-03-24T08:53:16.388Z,13.40
2023-03-24T08:55:45.753Z,13.50
2023-03-24T08:58:17.637Z,13.50
2023-03-24T09:00:48.559Z,13.60
2023-03-24T09:03:22.706Z,13.70
2023-03-24T09:05:52.360Z,13.80
2023-03-24T09:08:21.725Z,13.90
2023-03-24T09:10:51.471Z,14.10
2023-03-24T09:13:22.287Z,14.20
2023-03-24T09:15:53.554Z,14.20
2023-03-24T09:18:23.376Z,14.30
2023-03-24T09:20:52.814Z,14.30
2023-03-24T09:23:22.304Z,14.40
2023-03-24T09:25:51.853Z,14.40
2023-03-24T09:28:22.998Z,14.30
2023-03-24T09:30:52.693Z,14.20
2023-03-24T09:33:22.143Z,14.10
2023-03-24T09:35:57.781Z,14.20
2023-03-24T09:38:29.786Z,14.10
2023-03-24T09:41:02.839Z,14.20
2023-03-24T09:43:42.145Z,14.30
2023-03-24T09:46:16.297Z,14.40
2023-03-24T09:48:50.353Z,14.40
2023-03-24T09:51:25.395Z,14.30
2023-03-24T09:54:01.793Z,14.30
2023-03-24T09:56:31.575Z,14.40
2023-03-24T09:59:06.615Z,14.50
2023-03-24T10:01:36.563Z,14.60
2023-03-24T10:04:09.237Z,14.60
2023-03-24T10:06:42.143Z,14.70
2023-03-24T10:09:24.013Z,14.70
2023-03-24T10:12:02.290Z,14.70
2023-03-24T10:15:05.191Z,14.80
2023-03-24T10:17:43.944Z,14.90
2023-03-24T10:20:22.261Z,15.10
2023-03-24T10:23:00.969Z,15.40
2023-03-24T10:25:44.208Z,15.60
2023-03-24T10:28:21.045Z,15.70
2023-03-24T10:30:54.805Z,15.80
2023-03-24T10:33:23.890Z,15.70
2023-03-24T10:36:02.671Z,15.70
2023-03-24T10:38:32.096Z,15.60
2023-03-24T10:41:03.485Z,15.60
2023-03-24T10:43:33.455Z,15.60
2023-03-24T10:46:04.347Z,15.70
2023-03-24T10:48:47.350Z,15.70
2023-03-24T10:51:19.546Z,15.70
2023-03-24T10:53:50.779Z,15.60
2023-03-24T10:56:38.419Z,15.70
2023-03-24T10:59:28.951Z,15.70
2023-03-24T11:02:04.036Z,15.70
2023-03-24T11:04:34.032Z,15.70
2023-03-24T11:07:07.293Z,15.60
2023-03-24T11:09:44.771Z,15.50
2023-03-24T11:12:24.759Z,15.30
2023-03-24T11:15:07.521Z,15.30
2023-03-24T11:17:45.101Z,15.30
2023-03-24T11:20:19.911Z,15.30
2023-03-24T11:23:01.067Z,15.40
2023-03-24T11:25:33.771Z,15.50
2023-03-24T11:28:07.235Z,15.60
2023-03-24T11:30:48.026Z,15.70
2023-03-24T11:33:35.944Z,15.90
2023-03-24T11:36:34.858Z,16.10
2023-03-24T11:39:11.028Z,16.10
2023-03-24T11:41:43.440Z,16.00
2023-03-24T11:44:19.921Z,15.90
2023-03-24T11:46:52.600Z,15.80
2023-03-24T11:49:27.842Z,15.80
2023-03-24T11:51:57.258Z,15.90
2023-03-24T11:54:33.029Z,15.90
2023-03-24T11:57:06.685Z,16.00
2023-03-24T11:59:40.764Z,16.10
2023-03-24T12:02:20.622Z,16.20
2023-03-24T12:05:20.102Z,16.20
2023-03-24T12:08:24.231Z,16.20
2023-03-24T12:11:09.027Z,16.30
2023-03-24T12:13:42.903Z,16.30
2023-03-24T12:16:33.736Z,16.30
2023-03-24T12:19:35.192Z,16.30
2023-03-24T12:22:16.967Z,16.30
2023-03-24T12:25:23.449Z,16.40
2023-03-24T12:28:03.079Z,16.30
2023-03-24T12:30:39.413Z,16.30
2023-03-24T12:33:33.998Z,16.20
2023-03-24T12:36:21.151Z,16.20
2023-03-24T12:39:09.707Z,16.10
2023-03-24T12:42:04.380Z,16.10
2023-03-24T12:44:46.853Z,16.10
2023-03-24T12:47:29.039Z,16.00
2023-03-24T12:50:35.156Z,16.10
2023-03-24T12:53:23.167Z,16.00
2023-03-24T12:55:56.876Z,16.00
2023-03-24T12:58:35.880Z,16.00
2023-03-24T13:01:08.839Z,16.00
2023-03-24T13:03:41.573Z,16.00
2023-03-24T13:06:24.409Z,16.10
2023-03-24T13:09:11.275Z,16.10
2023-03-24T13:11:49.104Z,16.10
2023-03-24T13:14:24.911Z,16.00
2023-03-24T13:16:58.535Z,16.00
2023-03-24T13:19:30.531Z,16.00
2023-03-24T13:22:00.506Z,15.90
2023-03-24T13:24:29.735Z,15.90
2023-03-24T13:27:07.659Z,15.90
2023-03-24T13:30:01.368Z,15.80
2023-03-24T13:32:37.333Z,15.70
2023-03-24T13:35:14.580Z,15.70
2023-03-24T13:37:49.724Z,15.80
2023-03-24T13:40:24.644Z,15.70
2023-03-24T13:42:58.062Z,15.80
2023-03-24T13:45:41.371Z,15.80
2023-03-24T13:48:23.755Z,15.70
2023-03-24T13:50:57.929Z,15.60
2023-03-24T13:53:37.878Z,15.60
2023-03-24T13:56:09.549Z,15.60
2023-03-24T13:59:05.969Z,15.70
2023-03-24T14:01:39.022Z,15.80
2023-03-24T14:04:39.930Z,16.00
2023-03-24T14:07:47.481Z,16.10
2023-03-24T14:10:42.804Z,16.10
2023-03-24T14:13:22.801Z,16.00
2023-03-24T14:15:54.836Z,16.10
2023-03-24T14:18:43.370Z,16.10
2023-03-24T14:21:12.762Z,16.10
2023-03-24T14:23:43.361Z,16.00
2023-03-24T14:26:16.205Z,16.00
2023-03-24T14:28:46.775Z,16.00
2023-03-24T14:31:24.634Z,15.90
2023-03-24T14:34:03.655Z,15.70
2023-03-24T14:36:39.701Z,15.40
2023-03-24T14:39:13.732Z,14.90
2023-03-24T14:41:44.393Z,14.60
2023-03-24T14:44:13.656Z,14.30
2023-03-24T14:46:48.124Z,14.20
2023-03-24T14:49:23.577Z,14.00
2023-03-24T14:51:59.252Z,13.90
2023-03-24T14:54:35.666Z,13.90
2023-03-24T14:57:08.724Z,13.80
2023-03-24T14:59:45.457Z,13.80
2023-03-24T15:02:29.638Z,13.80
2023-03-24T15:05:22.567Z,13.80
2023-03-24T15:08:14.333Z,13.90
2023-03-24T15:10:47.881Z,13.90
2023-03-24T15:13:36.512Z,14.00
2023-03-24T15:16:08.014Z,14.00
2023-03-24T15:18:57.725Z,14.00
2023-03-24T15:21:34.509Z,14.10
2023-03-24T15:24:24.300Z,14.10
2023-03-24T15:26:55.447Z,14.00
2023-03-24T15:29:25.613Z,14.10
2023-03-24T15:31:54.780Z,14.10
2023-03-24T15:34:31.539Z,14.10
2023-03-24T15:37:03.712Z,14.10
2023-03-24T15:39:37.005Z,14.10
2023-03-24T15:42:07.634Z,14.10
2023-03-24T15:44:42.220Z,14.10
2023-03-24T15:47:17.356Z,14.10
2023-03-24T15:49:53.656Z,14.00
2023-03-24T15:52:31.128Z,13.90
2023-03-24T15:55:04.376Z,13.90
2023-03-24T15:57:41.884Z,13.90
2023-03-24T16:00:16.437Z,13.80
2023-03-24T16:02:49.224Z,13.80
2023-03-24T16:05:23.498Z,13.80
2023-03-24T16:07:57.567Z,13.70
2023-03-24T16:10:39.737Z,13.70
2023-03-24T16:13:16.381Z,13.60
2023-03-24T16:15:47.876Z,13.60
2023-03-24T16:18:20.031Z,13.50
2023-03-24T16:20:52.069Z,13.60
2023-03-24T16:23:21.181Z,13.50
2023-03-24T16:25:50.259Z,13.40
2023-03-24T16:28:21.633Z,13.30
2023-03-24T16:30:53.436Z,13.30
2023-03-24T16:33:22.605Z,13.30
2023-03-24T16:35:53.014Z,13.30
2023-03-24T16:38:22.135Z,13.20
2023-03-24T16:40:53.273Z,13.20
2023-03-24T16:43:23.066Z,13.10
2023-03-24T16:45:52.845Z,13.00
2023-03-24T16:48:22.195Z,13.00
2023-03-24T16:50:53.857Z,13.00
2023-03-24T16:53:22.922Z,13.00
2023-03-24T16:55:52.078Z,12.90
2023-03-24T16:58:21.062Z,12.80
2023-03-24T17:00:50.737Z,12.90
2023-03-24T17:03:20.057Z,12.90
2023-03-24T17:05:51.250Z,12.90
2023-03-24T17:08:21.895Z,12.80
2023-03-24T17:10:53.925Z,12.80
2023-03-24T17:13:25.057Z,12.80
2023-03-24T17:15:54.267Z,12.80
2023-03-24T17:18:24.094Z,12.80
2023-03-24T17:20:53.277Z,12.70
2023-03-24T17:23:23.801Z,12.70
2023-03-24T17:25:52.956Z,12.70
2023-03-24T17:28:22.329Z,12.70
2023-03-24T17:30:51.652Z,12.60
2023-03-24T17:33:21.050Z,12.60
2023-03-24T17:35:52.393Z,12.50
2023-03-24T17:38:21.222Z,12.40
2023-03-24T17:41:00.411Z,12.40
2023-03-24T17:43:29.800Z,12.30
2023-03-24T17:45:59.640Z,12.20
2023-03-24T17:48:28.938Z,12.20
2023-03-24T17:50:58.167Z,12.10
2023-03-24T17:53:28.009Z,12.10
2023-03-24T17:56:01.659Z,12.00
2023-03-24T17:58:30.944Z,12.00
2023-03-24T18:01:07.876Z,11.90
2023-03-24T18:03:38.370Z,11.80
2023-03-24T18:06:09.440Z,11.80
2023-03-24T18:08:40.593Z,11.70
2023-03-24T18:11:13.266Z,11.70
2023-03-24T18:13:43.048Z,11.70
2023-03-24T18:16:21.219Z,11.70
2023-03-24T18:18:51.688Z,11.60
2023-03-24T18:21:21.170Z,11.60
2023-03-24T18:23:50.425Z,11.60
2023-03-24T18:26:21.777Z,11.60
2023-03-24T18:28:50.729Z,11.50
2023-03-24T18:31:21.643Z,11.50
2023-03-24T18:33:51.882Z,11.50
2023-03-24T18:36:26.475Z,11.50
2023-03-24T18:38:59.819Z,11.40
2023-03-24T18:41:30.681Z,11.40
2023-03-24T18:44:00.856Z,11.40
2023-03-24T18:46:30.060Z,11.40
2023-03-24T18:48:59.464Z,11.40
2023-03-24T18:51:30.289Z,11.40
2023-03-24T18:53:59.661Z,11.30
2023-03-24T18:56:30.200Z,11.30
2023-03-24T18:58:59.589Z,11.30
2023-03-24T19:01:30.364Z,11.30
2023-03-24T19:03:59.647Z,11.20
2023-03-24T19:06:31.498Z,11.20
2023-03-24T19:09:01.480Z,11.20
2023-03-24T19:11:32.027Z,11.20
2023-03-24T19:14:01.094Z,11.20
2023-03-24T19:16:32.691Z,11.20
2023-03-24T19:19:01.762Z,11.20
2023-03-24T19:21:30.767Z,11.10
2023-03-24T19:23:59.934Z,11.10
2023-03-24T19:26:29.135Z,11.10
2023-03-24T19:28:59.541Z,11.10
2023-03-24T19:31:29.788Z,11.10
2023-03-24T19:33:58.877Z,11.10
2023-03-24T19:36:28.081Z,11.10
2023-03-24T19:38:59.704Z,11.10
2023-03-24T19:41:28.977Z,11.10
2023-03-24T19:43:59.448Z,11.10
2023-03-24T19:46:28.611Z,11.00
2023-03-24T19:48:57.885Z,11.00
2023-03-24T19:51:29.673Z,11.00
2023-03-24T19:53:58.695Z,11.00
2023-03-24T19:56:28.971Z,11.10
2023-03-24T19:58:59.720Z,11.00
2023-03-24T20:01:34.926Z,11.00
2023-03-24T20:04:04.101Z,11.00
2023-03-24T20:06:33.165Z,11.00
2023-03-24T20:09:04.990Z,11.00
2023-03-24T20:11:34.046Z,10.90
2023-03-24T20:14:04.490Z,11.00
2023-03-24T20:16:33.578Z,11.00
2023-03-24T20:19:02.773Z,11.00
2023-03-24T20:21:32.977Z,10.90
2023-03-24T20:24:03.909Z,10.90
2023-03-24T20:26:33.385Z,11.00
2023-03-24T20:29:04.561Z,11.00
2023-03-24T20:31:34.045Z,10.90
2023-03-24T20:34:03.333Z,11.00
2023-03-24T20:36:32.492Z,10.90
2023-03-24T20:39:02.587Z,10.90
2023-03-24T20:41:31.644Z,11.00
2023-03-24T20:44:00.893Z,11.00
2023-03-24T20:46:31.470Z,11.00
2023-03-24T20:49:00.511Z,11.00
2023-03-24T20:51:29.685Z,11.00
2023-03-24T20:53:58.856Z,11.00
2023-03-24T20:56:30.142Z,11.00
2023-03-24T20:59:02.613Z,11.00
2023-03-24T21:01:35.945Z,11.00
2023-03-24T21:04:09.377Z,11.00
2023-03-24T21:06:39.259Z,10.90
2023-03-24T21:09:08.783Z,11.00
2023-03-24T21:11:38.150Z,10.90
2023-03-24T21:14:07.214Z,10.90
2023-03-24T21:16:38.190Z,10.90
2023-03-24T21:19:09.207Z,10.90
2023-03-24T21:21:42.878Z,10.90
2023-03-24T21:24:14.151Z,10.90
2023-03-24T21:26:44.469Z,10.90
2023-03-24T21:29:14.042Z,10.90
2023-03-24T21:31:44.676Z,10.90
2023-03-24T21:34:13.775Z,10.90
2023-03-24T21:36:42.793Z,10.90
2023-03-24T21:39:12.603Z,10.90
2023-03-24T21:41:42.759Z,10.90
2023-03-24T21:44:12.149Z,10.90
2023-03-24T21:46:47.794Z,10.80
2023-03-24T21:49:19.181Z,10.90
2023-03-24T21:51:49.264Z,10.80
2023-03-24T21:54:18.845Z,10.80
2023-03-24T21:56:48.271Z,10.90
2023-03-24T21:59:17.279Z,10.80
2023-03-24T22:01:47.724Z,10.80
2023-03-24T22:04:17.648Z,10.80
2023-03-24T22:06:47.993Z,10.80
2023-03-24T22:09:19.117Z,10.80
2023-03-24T22:11:48.243Z,10.80
2023-03-24T22:14:19.193Z,10.80
2023-03-24T22:16:49.639Z,10.80
2023-03-24T22:19:20.249Z,10.80
2023-03-24T22:21:52.102Z,10.80
2023-03-24T22:24:21.216Z,10.80
2023-03-24T22:26:50.231Z,10.90
2023-03-24T22:29:19.296Z,10.80
2023-03-24T22:31:49.882Z,10.80
2023-03-24T22:34:18.964Z,10.80
2023-03-24T22:36:48.033Z,10.80
2023-03-24T22:39:17.036Z,10.80
2023-03-24T22:41:46.072Z,10.80
2023-03-24T22:44:15.124Z,10.80
2023-03-24T22:46:44.654Z,10.70
2023-03-24T22:49:15.005Z,10.70
2023-03-24T22:51:44.059Z,10.70
2023-03-24T22:54:13.077Z,10.70
2023-03-24T22:56:42.305Z,10.80
2023-03-24T22:59:11.305Z,10.70
2023-03-24T23:01:40.518Z,10.70
2023-03-24T23:04:12.043Z,10.80
2023-03-24T23:06:42.513Z,10.80
2023-03-24T23:09:11.881Z,10.70
2023-03-24T23:11:41.003Z,10.70
2023-03-24T23:14:13.088Z,10.70
2023-03-24T23:16:45.701Z,10.80
2023-03-24T23:19:16.444Z,10.70
2023-03-24T23:21:46.789Z,10.70
2023-03-24T23:24:15.947Z,10.70
2023-03-24T23:26:45.006Z,10.70
2023-03-24T23:29:14.321Z,10.70
2023-03-24T23:31:46.199Z,10.70
2023-03-24T23:34:15.210Z,10.70
2023-03-24T23:36:44.914Z,10.70
2023-03-24T23:39:15.623Z,10.70
2023-03-24T23:41:46.442Z,10.70
2023-03-24T23:44:19.627Z,10.70
2023-03-24T23:46:48.647Z,10.70
2023-03-24T23:49:17.841Z,10.70
2023-03-24T23:51:47.260Z,10.70
2023-03-24T23:54:17.797Z,10.70
2023-03-24T23:56:47.353Z,10.70
2023-03-24T23:59:16.941Z,10.70
